Time;durP1;ratioP1;P1;durP2;ratioP2;P2;SDS_P1;SDS_P2;PMS_P1;PMS_P2;Temp;Humidity;BMP_temperature;BMP_pressure;BME280_temperature;BME280_humidity;BME280_pressure;Samples;Min_cycle;Max_cycle;Signal;HPM_P1;HPM_P2
2022/10/02 00:01:46;;;;;;;1.98;0.80;;;13.60;99.90;;;;;;20960736;28;20110;-39
2022/10/02 00:11:53;;;;;;;9.48;1.35;;;13.70;99.90;;;;;;20973462;28;20239;-39
2022/10/02 00:22:04;;;;;;;;;;;13.80;99.90;;;;;;20977246;28;20036;-39
2022/10/02 00:32:09;;;;;;;2.83;0.88;;;13.70;99.90;;;;;;20956792;28;20455;-39
2022/10/02 00:42:47;;;;;;;1.52;0.60;;;13.60;99.90;;;;;;20977586;28;20040;-39
2022/10/02 00:53:06;;;;;;;6.25;1.05;;;13.30;99.90;;;;;;20967348;28;20592;-39
2022/10/02 01:03:22;;;;;;;2.53;0.95;;;13.20;99.90;;;;;;20970465;28;20495;-39
2022/10/02 01:13:23;;;;;;;2.95;1.25;;;13.20;99.90;;;;;;20966700;28;20040;-39
2022/10/02 01:23:39;;;;;;;2.63;0.73;;;13.30;99.90;;;;;;20971663;28;20036;-39
2022/10/02 01:33:43;;;;;;;2.40;0.70;;;13.40;99.90;;;;;;20976784;28;21860;-39
2022/10/02 01:43:51;;;;;;;3.58;1.10;;;13.40;99.90;;;;;;20963257;28;20040;-39
2022/10/02 01:54:00;;;;;;;3.83;0.90;;;13.40;99.90;;;;;;20968055;28;20434;-39
2022/10/02 02:04:20;;;;;;;3.63;0.63;;;13.40;99.90;;;;;;20959115;28;20052;-39
2022/10/02 02:14:35;;;;;;;3.25;0.82;;;13.40;99.90;;;;;;20949280;28;20040;-38
2022/10/02 02:24:45;;;;;;;3.50;0.98;;;13.30;99.90;;;;;;20954938;28;20315;-38
2022/10/02 02:35:34;;;;;;;3.63;1.85;;;13.30;99.90;;;;;;21444869;22;20478;-39
2022/10/02 02:45:41;;;;;;;2.92;1.25;;;13.40;99.90;;;;;;21023029;28;20857;-39
2022/10/02 02:55:48;;;;;;;4.77;0.93;;;13.40;99.90;;;;;;21031583;28;20049;-38
2022/10/02 03:06:00;;;;;;;3.57;1.10;;;13.30;99.90;;;;;;21023374;28;20044;-38
2022/10/02 03:16:34;;;;;;;4.97;1.20;;;13.30;99.90;;;;;;21025089;28;20491;-39
2022/10/02 03:26:44;;;;;;;5.88;1.17;;;13.30;99.90;;;;;;21015718;28;20125;-38
2022/10/02 03:36:46;;;;;;;2.88;0.80;;;13.30;99.90;;;;;;20999842;28;20048;-38
2022/10/02 03:46:47;;;;;;;2.63;1.05;;;13.30;99.90;;;;;;21054635;23;20044;-80
2022/10/02 03:56:53;;;;;;;5.65;1.48;;;13.30;99.90;;;;;;21067684;28;20133;-80
2022/10/02 04:07:04;;;;;;;5.13;1.55;;;13.30;99.90;;;;;;21052876;27;20100;-80
2022/10/02 04:17:12;;;;;;;4.72;1.50;;;13.20;99.90;;;;;;21073222;28;20039;-80
2022/10/02 04:27:26;;;;;;;3.05;1.20;;;13.10;99.90;;;;;;21040495;27;20031;-79
2022/10/02 04:37:54;;;;;;;2.53;0.93;;;13.00;99.90;;;;;;21064249;27;20043;-80
2022/10/02 04:48:26;;;;;;;1.80;1.10;;;12.80;99.90;;;;;;21057160;28;20557;-80
2022/10/02 04:58:45;;;;;;;1.98;0.80;;;12.70;99.90;;;;;;21062530;27;20040;-80
2022/10/02 05:09:15;;;;;;;1.75;0.73;;;12.60;99.90;;;;;;21071713;28;20684;-81
2022/10/02 05:19:50;;;;;;;4.82;1.33;;;12.60;99.90;;;;;;21064362;27;20039;-81
2022/10/02 05:30:09;;;;;;;5.28;0.88;;;12.50;99.90;;;;;;21038784;27;20572;-80
2022/10/02 05:40:32;;;;;;;2.75;0.90;;;12.50;99.90;;;;;;21053826;28;20039;-80
2022/10/02 05:50:35;;;;;;;2.17;0.90;;;12.40;99.90;;;;;;21067202;28;20125;-81
2022/10/02 06:00:40;;;;;;;5.55;1.38;;;12.20;99.90;;;;;;21057073;28;20154;-80
2022/10/02 06:10:49;;;;;;;6.32;1.73;;;12.20;99.90;;;;;;21058193;27;20069;-81
2022/10/02 06:21:00;;;;;;;4.88;1.92;;;12.30;99.90;;;;;;21044254;27;20120;-80
2022/10/02 06:31:09;;;;;;;4.07;1.52;;;12.30;99.90;;;;;;21040624;28;20051;-80
2022/10/02 06:41:36;;;;;;;3.80;1.30;;;12.40;99.90;;;;;;21064547;27;20101;-79
2022/10/02 06:52:19;;;;;;;8.70;0.95;;;12.40;99.90;;;;;;21002575;28;20389;-79
2022/10/02 07:02:31;;;;;;;2.05;0.60;;;12.50;99.90;;;;;;21068491;28;20077;-81
2022/10/02 07:12:50;;;;;;;2.85;0.75;;;12.60;99.90;;;;;;21046493;28;20043;-81
2022/10/02 07:23:12;;;;;;;3.35;1.20;;;12.70;99.90;;;;;;21063106;28;20125;-81
2022/10/02 07:33:46;;;;;;;1.20;0.50;;;12.80;99.90;;;;;;21038880;28;20175;-80
2022/10/02 07:44:15;;;;;;;2.83;1.30;;;13.00;99.90;;;;;;21051536;28;20125;-80
2022/10/02 07:54:30;;;;;;;3.45;1.00;;;13.20;99.90;;;;;;21055595;28;20089;-80
2022/10/02 08:04:34;;;;;;;1.52;0.50;;;13.30;99.90;;;;;;21047788;28;20048;-80
2022/10/02 08:14:44;;;;;;;2.55;0.93;;;13.60;99.90;;;;;;21073579;28;20686;-80
2022/10/02 08:24:50;;;;;;;1.98;0.70;;;13.80;99.90;;;;;;21034058;28;21049;-79
2022/10/02 08:34:51;;;;;;;2.85;1.38;;;14.00;99.90;;;;;;21075858;28;20036;-80
2022/10/02 08:45:21;;;;;;;3.05;0.70;;;14.30;99.90;;;;;;21070626;28;20051;-79
2022/10/02 08:55:49;;;;;;;6.47;1.20;;;14.70;99.90;;;;;;21072840;27;20031;-80
2022/10/02 09:06:21;;;;;;;3.35;1.25;;;14.90;99.90;;;;;;21072693;28;20044;-80
2022/10/02 09:16:28;;;;;;;4.18;1.73;;;15.10;99.90;;;;;;21062856;27;20258;-80
2022/10/02 09:26:56;;;;;;;3.00;1.17;;;15.30;99.90;;;;;;21067972;27;20052;-80
2022/10/02 09:37:42;;;;;;;2.55;1.52;;;15.40;99.90;;;;;;21055381;28;20807;-79
2022/10/02 09:48:09;;;;;;;2.15;0.70;;;15.50;99.90;;;;;;21056166;28;20621;-80
2022/10/02 09:58:24;;;;;;;4.15;1.42;;;15.80;99.90;;;;;;21076483;28;20070;-80
2022/10/02 10:08:37;;;;;;;6.65;2.17;;;15.80;99.90;;;;;;21077522;27;20052;-80
2022/10/02 10:19:22;;;;;;;2.40;0.90;;;15.60;99.90;;;;;;21063124;27;20495;-79
2022/10/02 10:29:46;;;;;;;2.20;0.60;;;15.90;99.90;;;;;;21082723;28;20489;-79
2022/10/02 10:40:14;;;;;;;1.73;0.50;;;16.30;99.90;;;;;;21056771;28;20720;-79
2022/10/02 10:50:28;;;;;;;2.33;0.70;;;16.50;99.90;;;;;;21044590;28;20048;-79
2022/10/02 11:00:46;;;;;;;3.63;0.88;;;16.80;99.90;;;;;;21057866;28;20044;-80
2022/10/02 11:11:08;;;;;;;1.93;0.57;;;17.50;99.90;;;;;;21049845;28;20039;-79
2022/10/02 11:21:24;;;;;;;5.03;0.90;;;17.10;99.90;;;;;;21031680;28;20588;-80
2022/10/02 11:31:38;;;;;;;2.20;1.20;;;16.60;99.90;;;;;;21034780;28;20047;-80
2022/10/02 11:42:02;;;;;;;2.25;0.85;;;16.30;99.90;;;;;;21037557;28;21669;-79
2022/10/02 11:52:10;;;;;;;1.77;0.60;;;16.40;99.90;;;;;;21038054;28;20222;-79
2022/10/02 12:02:18;;;;;;;4.43;0.88;;;16.60;99.90;;;;;;21037298;28;20043;-80
2022/10/02 12:12:38;;;;;;;8.70;1.08;;;17.40;99.90;;;;;;21061793;28;20044;-79
2022/10/02 12:33:35;;;;;;;5.50;0.50;;;18.80;99.90;;;;;;21067515;27;20044;-79
2022/10/02 12:44:15;;;;;;;7.45;0.70;;;19.10;99.90;;;;;;21052584;28;20648;-77
2022/10/02 12:54:19;;;;;;;2.53;0.43;;;19.80;99.90;;;;;;21067198;28;20520;-76
2022/10/02 13:04:56;;;;;;;2.00;1.08;;;20.60;99.90;;;;;;21081485;28;20099;-76
2022/10/02 13:15:25;;;;;;;2.97;0.73;;;20.70;99.90;;;;;;21054196;28;20334;-78
2022/10/02 13:25:57;;;;;;;1.23;0.45;;;21.30;99.90;;;;;;21050692;28;20101;-78
2022/10/02 13:36:12;;;;;;;3.22;1.20;;;21.40;99.90;;;;;;21072516;28;20554;-78
2022/10/02 13:47:02;;;;;;;1.20;0.40;;;20.30;99.90;;;;;;21077282;27;20445;-78
2022/10/02 13:57:28;;;;;;;1.35;0.50;;;20.40;99.90;;;;;;21022178;28;21871;-80
2022/10/02 14:07:53;;;;;;;1.83;0.40;;;20.90;99.90;;;;;;21041459;28;20123;-79
2022/10/02 14:18:13;;;;;;;3.00;0.85;;;19.70;99.90;;;;;;21020646;27;20682;-80
2022/10/02 14:28:46;;;;;;;1.80;0.95;;;19.90;99.90;;;;;;21018867;27;20405;-78
2022/10/02 14:38:59;;;;;;;2.55;0.63;;;18.60;99.90;;;;;;21015391;28;20127;-78
2022/10/02 14:49:22;;;;;;;4.00;1.17;;;19.00;99.90;;;;;;21012180;27;20505;-79
2022/10/02 14:59:37;;;;;;;2.60;0.60;;;18.70;99.90;;;;;;21043891;27;20095;-80
2022/10/02 15:10:00;;;;;;;1.10;0.65;;;18.20;99.90;;;;;;21046254;28;21350;-79
2022/10/02 15:20:23;;;;;;;1.98;0.73;;;17.90;99.90;;;;;;21038582;28;20079;-79
2022/10/02 15:30:25;;;;;;;3.85;1.17;;;17.60;99.90;;;;;;21030021;28;20050;-80
2022/10/02 15:40:38;;;;;;;0.93;0.47;;;17.30;99.90;;;;;;21045631;27;20498;-80
2022/10/02 15:50:47;;;;;;;2.25;0.70;;;17.10;99.90;;;;;;21088630;28;20397;-79
2022/10/02 16:01:27;;;;;;;5.53;0.70;;;16.70;99.90;;;;;;21068720;27;20043;-80
2022/10/02 16:11:52;;;;;;;2.33;1.20;;;16.50;99.90;;;;;;21047157;27;20053;-80
2022/10/02 16:22:07;;;;;;;2.58;1.13;;;16.30;99.90;;;;;;21035509;28;21631;-80
2022/10/02 16:32:33;;;;;;;5.38;1.08;;;16.10;99.90;;;;;;21033932;28;20082;-80
2022/10/02 16:42:50;;;;;;;0.90;0.40;;;15.70;99.90;;;;;;21026734;27;20254;-80
2022/10/02 16:53:02;;;;;;;2.63;0.55;;;15.50;99.90;;;;;;21035030;27;20094;-80
2022/10/02 17:03:22;;;;;;;3.67;0.60;;;15.30;99.90;;;;;;21023993;27;20628;-81
2022/10/02 17:13:45;;;;;;;1.92;0.40;;;15.10;99.90;;;;;;21044507;27;20082;-80
2022/10/02 17:24:13;;;;;;;3.25;0.98;;;14.80;99.90;;;;;;21021540;27;20633;-81
2022/10/02 17:34:21;;;;;;;2.08;1.15;;;14.60;99.90;;;;;;21010730;27;20494;-80
2022/10/02 17:45:02;;;;;;;3.17;0.57;;;14.40;99.90;;;;;;21023102;27;20507;-83
2022/10/02 18:06:15;;;;;;;7.85;0.90;;;14.10;99.90;;;;;;21038717;28;20066;-83
2022/10/02 18:16:31;;;;;;;2.28;0.73;;;13.80;99.90;;;;;;21018351;27;21036;-81
2022/10/02 18:26:53;;;;;;;1.58;0.50;;;13.60;99.90;;;;;;21005341;28;20418;-82
2022/10/02 18:37:19;;;;;;;1.88;0.60;;;13.20;99.90;;;;;;21029081;27;20139;-82
2022/10/02 18:47:36;;;;;;;2.65;0.57;;;13.10;99.90;;;;;;21020602;27;20162;-81
2022/10/02 18:58:06;;;;;;;2.63;1.58;;;13.00;99.90;;;;;;21036214;28;20629;-84
2022/10/02 19:08:49;;;;;;;1.73;0.70;;;12.80;99.90;;;;;;21010947;28;20163;-84
2022/10/02 19:19:17;;;;;;;1.40;0.60;;;12.50;99.90;;;;;;21012677;28;20467;-83
2022/10/02 19:29:30;;;;;;;1.27;0.73;;;12.20;99.90;;;;;;21019038;28;20158;-82
2022/10/02 19:39:35;;;;;;;1.75;0.80;;;12.00;99.90;;;;;;21013923;28;20074;-82
2022/10/02 19:49:39;;;;;;;2.25;1.35;;;11.90;99.90;;;;;;21020863;28;20662;-82
2022/10/02 19:59:45;;;;;;;3.38;1.45;;;11.80;99.90;;;;;;21023323;28;21357;-83
2022/10/02 20:09:55;;;;;;;2.83;1.00;;;11.70;99.90;;;;;;21030507;28;20050;-82
2022/10/02 20:20:01;;;;;;;2.63;0.70;;;11.60;99.90;;;;;;21033740;28;20039;-82
2022/10/02 20:30:09;;;;;;;2.60;1.33;;;11.50;99.90;;;;;;21060262;27;20035;-82
2022/10/02 20:40:13;;;;;;;2.47;1.17;;;11.40;99.90;;;;;;21046515;28;20058;-82
2022/10/02 20:50:40;;;;;;;3.97;0.90;;;11.30;99.90;;;;;;21057617;27;20070;-82
2022/10/02 21:00:56;;;;;;;1.88;0.85;;;11.20;99.90;;;;;;21063773;28;23526;-82
2022/10/02 21:11:35;;;;;;;4.15;1.05;;;11.10;99.90;;;;;;21056535;28;20053;-83
2022/10/02 21:22:04;;;;;;;1.48;0.70;;;10.90;99.90;;;;;;21040338;28;20681;-83
2022/10/02 21:32:20;;;;;;;2.83;1.35;;;10.90;99.90;;;;;;21037185;27;20510;-83
2022/10/02 21:42:27;;;;;;;2.90;0.50;;;10.80;99.90;;;;;;21049186;27;20180;-82
2022/10/02 21:52:54;;;;;;;3.80;1.70;;;10.80;99.90;;;;;;21052219;28;20494;-82
2022/10/02 22:03:10;;;;;;;1.17;0.60;;;10.80;99.90;;;;;;21070757;27;20687;-83
2022/10/02 22:13:22;;;;;;;2.30;1.05;;;10.80;99.90;;;;;;21040774;27;20043;-82
2022/10/02 22:23:47;;;;;;;2.67;1.48;;;10.70;99.90;;;;;;21048919;28;20089;-82
2022/10/02 22:33:59;;;;;;;3.45;1.13;;;10.70;99.90;;;;;;21053995;28;20551;-82
2022/10/02 22:44:11;;;;;;;2.80;1.20;;;10.60;99.90;;;;;;21080884;28;20206;-82
2022/10/02 22:54:20;;;;;;;2.25;0.98;;;10.50;99.90;;;;;;21042824;28;20031;-82
2022/10/02 23:04:31;;;;;;;0.93;0.22;;;10.30;99.90;;;;;;21041093;28;20098;-82
2022/10/02 23:14:46;;;;;;;2.22;0.77;;;10.20;99.90;;;;;;21048789;28;20540;-82
2022/10/02 23:24:56;;;;;;;9.85;1.75;;;10.10;99.90;;;;;;21049028;28;20040;-82
2022/10/02 23:35:23;;;;;;;1.73;0.57;;;10.10;99.90;;;;;;21052382;28;20029;-82
2022/10/02 23:45:38;;;;;;;1.85;0.50;;;10.00;99.90;;;;;;21048767;28;20040;-82
2022/10/02 23:55:46;;;;;;;1.58;0.73;;;9.90;99.90;;;;;;21056127;28;20838;-82
